KFCS/FCS METAR and TAF weather

Enter ICAO airport designator
Station Type Date Time Source
KFCS METAR 2019/04/20 22:58 UTC NOAA

KFCS 202258Z AUTO 24022G26KT 10SM SCT140 24/M12 A2979 RMK AO2 PK WND 16032/2159 SLP053 T02401123 $


Station Type Date Time Source
KFCS Decoded METAR 2019/04/20 22:58 UTC NOAA

Fort Carson, CO, United States (KFCS) 38-42N 104-46W 1789M
Apr 20, 2019 - 06:58 PM EDT / 2019.04.20 2258 UTC
Wind: from the WSW (240 degrees) at 25 MPH (22 KT) gusting to 30 MPH (26 KT):0
Visibility: 10 mile(s):0
Sky conditions: partly cloudy
Temperature: 75.2 F (24.0 C)
Dew Point: 9.9 F (-12.3 C)
Relative Humidity: 7%
Pressure (altimeter): 29.79 in. Hg (1008 hPa)
ob: KFCS 202258Z AUTO 24022G26KT 10SM SCT140 24/M12 A2979 RMK AO2 PK WND 16032/2159 SLP053 T02401123
cycle: 23

Station Type Date Time Source
KFCS TAF 2019/04/20 22:16 UTC NOAA

TAF
AMD KFCS 202206Z 2022/2203 20012G25KT 9999 VCSH BKN100 BKN200 QNH2977INS
TEMPO 2022/2101 VRB20G30KT VCTS BKN060CB
BECMG 2101/2102 20012KT 9999 NSW SCT100 QNH2974INS
BECMG 2107/2108 30009KT 9999 FEW050 SCT080 BKN100 QNH2980INS
BECMG 2110/2111 27009KT 9999 SKC QNH2978INS
BECMG 2120/2121 22015G25KT 9999 VCSH SCT100 QNH2981INS TX26/2022Z TN04/2112Z

Example: see airport list